sensor_id;sensor_type;location;lat;lon;timestamp;noise_LAeq;noise_LA_min;noise_LA_max;noise_LA01;noise_LA95
47109;Laerm;32856;51.422;6.794;2024-02-26T00:00:24;49.85;45.20;58.69;;
47109;Laerm;32856;51.422;6.794;2024-02-26T00:02:51;49.69;44.03;55.01;;
47109;Laerm;32856;51.422;6.794;2024-02-26T00:05:18;49.34;46.13;53.35;;
47109;Laerm;32856;51.422;6.794;2024-02-26T00:07:46;50.46;45.86;57.17;;
47109;Laerm;32856;51.422;6.794;2024-02-26T00:10:16;52.29;46.89;57.68;;
47109;Laerm;32856;51.422;6.794;2024-02-26T00:12:43;52.57;44.62;67.98;;
47109;Laerm;32856;51.422;6.794;2024-02-26T00:15:11;48.96;44.49;54.67;;
47109;Laerm;32856;51.422;6.794;2024-02-26T00:17:38;48.77;44.83;53.25;;
47109;Laerm;32856;51.422;6.794;2024-02-26T00:20:06;55.12;44.31;73.46;;
47109;Laerm;32856;51.422;6.794;2024-02-26T00:22:35;50.55;44.62;56.03;;
47109;Laerm;32856;51.422;6.794;2024-02-26T00:25:03;48.09;44.58;54.09;;
47109;Laerm;32856;51.422;6.794;2024-02-26T00:27:32;54.69;45.57;75.09;;
47109;Laerm;32856;51.422;6.794;2024-02-26T00:29:59;48.45;44.43;54.11;;
47109;Laerm;32856;51.422;6.794;2024-02-26T00:32:27;48.69;44.51;54.11;;
47109;Laerm;32856;51.422;6.794;2024-02-26T00:34:54;49.34;43.99;55.16;;
47109;Laerm;32856;51.422;6.794;2024-02-26T00:37:22;49.97;44.11;59.14;;
47109;Laerm;32856;51.422;6.794;2024-02-26T00:39:49;50.17;43.99;55.05;;
47109;Laerm;32856;51.422;6.794;2024-02-26T00:42:17;53.31;44.51;58.91;;
47109;Laerm;32856;51.422;6.794;2024-02-26T00:44:45;49.84;44.58;55.94;;
47109;Laerm;32856;51.422;6.794;2024-02-26T00:47:13;56.62;45.11;75.39;;
47109;Laerm;32856;51.422;6.794;2024-02-26T00:49:40;48.39;43.90;52.25;;
47109;Laerm;32856;51.422;6.794;2024-02-26T00:52:08;54.09;45.45;72.15;;
47109;Laerm;32856;51.422;6.794;2024-02-26T00:54:35;54.34;43.64;70.41;;
47109;Laerm;32856;51.422;6.794;2024-02-26T00:57:02;50.31;43.58;60.60;;
47109;Laerm;32856;51.422;6.794;2024-02-26T00:59:30;55.75;42.53;71.90;;
47109;Laerm;32856;51.422;6.794;2024-02-26T01:01:59;51.24;42.29;60.83;;
47109;Laerm;32856;51.422;6.794;2024-02-26T01:04:28;54.40;42.41;73.92;;
47109;Laerm;32856;51.422;6.794;2024-02-26T01:06:56;52.00;44.43;56.95;;
47109;Laerm;32856;51.422;6.794;2024-02-26T01:09:23;49.17;44.87;55.40;;
47109;Laerm;32856;51.422;6.794;2024-02-26T01:11:51;49.30;44.54;53.97;;
47109;Laerm;32856;51.422;6.794;2024-02-26T01:14:18;50.77;45.57;56.48;;
47109;Laerm;32856;51.422;6.794;2024-02-26T01:16:45;48.98;43.94;56.55;;
47109;Laerm;32856;51.422;6.794;2024-02-26T01:19:14;47.59;42.98;53.80;;
47109;Laerm;32856;51.422;6.794;2024-02-26T01:21:42;49.15;41.96;54.12;;
47109;Laerm;32856;51.422;6.794;2024-02-26T01:24:09;49.50;43.39;56.30;;
47109;Laerm;32856;51.422;6.794;2024-02-26T01:26:37;50.67;42.53;56.80;;
47109;Laerm;32856;51.422;6.794;2024-02-26T01:29:04;50.12;44.58;59.18;;
47109;Laerm;32856;51.422;6.794;2024-02-26T01:31:31;46.84;42.41;52.76;;
47109;Laerm;32856;51.422;6.794;2024-02-26T01:33:59;58.36;45.51;75.73;;
47109;Laerm;32856;51.422;6.794;2024-02-26T01:36:28;55.62;44.87;75.67;;
47109;Laerm;32856;51.422;6.794;2024-02-26T01:38:55;57.94;45.25;78.36;;
47109;Laerm;32856;51.422;6.794;2024-02-26T01:41:23;48.89;44.23;54.08;;
47109;Laerm;32856;51.422;6.794;2024-02-26T01:43:50;53.62;45.23;62.04;;
47109;Laerm;32856;51.422;6.794;2024-02-26T01:46:18;51.50;43.19;58.86;;
47109;Laerm;32856;51.422;6.794;2024-02-26T01:48:45;56.01;44.97;73.57;;
47109;Laerm;32856;51.422;6.794;2024-02-26T01:51:13;48.71;43.04;56.12;;
47109;Laerm;32856;51.422;6.794;2024-02-26T01:53:42;49.14;44.03;53.18;;
47109;Laerm;32856;51.422;6.794;2024-02-26T01:56:10;50.39;44.15;64.47;;
47109;Laerm;32856;51.422;6.794;2024-02-26T01:58:38;54.02;44.03;71.90;;
47109;Laerm;32856;51.422;6.794;2024-02-26T02:01:05;53.90;44.19;70.95;;
47109;Laerm;32856;51.422;6.794;2024-02-26T02:03:33;57.90;44.11;76.35;;
47109;Laerm;32856;51.422;6.794;2024-02-26T02:06:01;53.24;44.58;71.81;;
47109;Laerm;32856;51.422;6.794;2024-02-26T02:08:28;48.55;44.43;51.81;;
47109;Laerm;32856;51.422;6.794;2024-02-26T02:10:58;49.10;44.51;54.39;;
47109;Laerm;32856;51.422;6.794;2024-02-26T02:13:26;56.76;45.60;73.65;;
47109;Laerm;32856;51.422;6.794;2024-02-26T02:15:53;50.26;45.39;55.76;;
47109;Laerm;32856;51.422;6.794;2024-02-26T02:18:20;49.56;45.23;54.57;;
47109;Laerm;32856;51.422;6.794;2024-02-26T02:20:49;56.01;45.27;75.62;;
47109;Laerm;32856;51.422;6.794;2024-02-26T02:23:17;50.20;44.65;62.10;;
47109;Laerm;32856;51.422;6.794;2024-02-26T02:25:44;50.26;45.23;59.51;;
47109;Laerm;32856;51.422;6.794;2024-02-26T02:28:11;53.30;45.39;69.11;;
47109;Laerm;32856;51.422;6.794;2024-02-26T02:30:38;48.87;42.98;57.30;;
47109;Laerm;32856;51.422;6.794;2024-02-26T02:33:06;50.77;45.39;59.95;;
47109;Laerm;32856;51.422;6.794;2024-02-26T02:35:34;49.64;44.94;53.73;;
47109;Laerm;32856;51.422;6.794;2024-02-26T02:38:03;50.05;44.69;55.47;;
47109;Laerm;32856;51.422;6.794;2024-02-26T02:40:30;57.39;45.60;76.35;;
47109;Laerm;32856;51.422;6.794;2024-02-26T02:42:57;52.29;47.77;57.21;;
47109;Laerm;32856;51.422;6.794;2024-02-26T02:45:26;51.36;46.82;58.97;;
47109;Laerm;32856;51.422;6.794;2024-02-26T02:47:53;54.25;46.05;70.70;;
47109;Laerm;32856;51.422;6.794;2024-02-26T02:50:21;50.90;45.39;61.09;;
47109;Laerm;32856;51.422;6.794;2024-02-26T02:52:49;54.28;46.30;60.88;;
47109;Laerm;32856;51.422;6.794;2024-02-26T02:55:17;52.94;45.14;60.72;;
47109;Laerm;32856;51.422;6.794;2024-02-26T02:57:45;56.98;47.00;75.41;;
47109;Laerm;32856;51.422;6.794;2024-02-26T03:00:12;51.89;46.71;59.18;;
47109;Laerm;32856;51.422;6.794;2024-02-26T03:02:40;52.97;43.99;66.34;;
47109;Laerm;32856;51.422;6.794;2024-02-26T03:05:07;61.13;46.45;80.94;;
47109;Laerm;32856;51.422;6.794;2024-02-26T03:07:35;52.79;48.58;61.16;;
47109;Laerm;32856;51.422;6.794;2024-02-26T03:10:02;55.60;48.37;72.46;;
47109;Laerm;32856;51.422;6.794;2024-02-26T03:12:31;60.55;48.98;79.49;;
47109;Laerm;32856;51.422;6.794;2024-02-26T03:14:59;59.78;48.83;78.90;;
47109;Laerm;32856;51.422;6.794;2024-02-26T03:17:28;57.68;48.80;76.26;;
47109;Laerm;32856;51.422;6.794;2024-02-26T03:19:56;57.77;50.70;66.57;;
47109;Laerm;32856;51.422;6.794;2024-02-26T03:22:23;53.87;49.11;60.34;;
47109;Laerm;32856;51.422;6.794;2024-02-26T03:24:50;56.09;50.59;62.73;;
47109;Laerm;32856;51.422;6.794;2024-02-26T03:27:18;56.65;51.40;71.80;;
47109;Laerm;32856;51.422;6.794;2024-02-26T03:29:47;58.14;52.11;76.26;;
47109;Laerm;32856;51.422;6.794;2024-02-26T03:32:14;59.34;52.58;77.12;;
47109;Laerm;32856;51.422;6.794;2024-02-26T03:34:41;58.51;52.36;75.09;;
47109;Laerm;32856;51.422;6.794;2024-02-26T03:37:09;64.90;51.89;85.63;;
47109;Laerm;32856;51.422;6.794;2024-02-26T03:39:37;60.40;52.87;75.35;;
47109;Laerm;32856;51.422;6.794;2024-02-26T03:42:05;54.48;50.08;67.75;;
47109;Laerm;32856;51.422;6.794;2024-02-26T03:44:32;62.45;51.77;78.39;;
47109;Laerm;32856;51.422;6.794;2024-02-26T03:47:01;65.17;52.27;84.45;;
47109;Laerm;32856;51.422;6.794;2024-02-26T03:49:28;55.51;49.55;62.75;;
47109;Laerm;32856;51.422;6.794;2024-02-26T03:51:56;59.43;51.28;77.55;;
47109;Laerm;32856;51.422;6.794;2024-02-26T03:54:23;56.30;52.56;63.55;;
47109;Laerm;32856;51.422;6.794;2024-02-26T03:56:51;62.90;53.70;79.65;;
47109;Laerm;32856;51.422;6.794;2024-02-26T03:59:18;63.04;53.50;76.75;;
47109;Laerm;32856;51.422;6.794;2024-02-26T04:01:46;61.00;52.15;76.59;;
47109;Laerm;32856;51.422;6.794;2024-02-26T04:04:15;60.57;51.98;75.78;;
47109;Laerm;32856;51.422;6.794;2024-02-26T04:06:44;63.20;53.69;76.87;;
47109;Laerm;32856;51.422;6.794;2024-02-26T04:09:11;61.48;53.66;76.67;;
47109;Laerm;32856;51.422;6.794;2024-02-26T04:11:38;62.89;54.05;76.99;;
47109;Laerm;32856;51.422;6.794;2024-02-26T04:14:06;64.79;54.02;82.30;;
47109;Laerm;32856;51.422;6.794;2024-02-26T04:16:34;65.91;53.26;83.41;;
47109;Laerm;32856;51.422;6.794;2024-02-26T04:19:02;63.74;54.89;78.36;;
47109;Laerm;32856;51.422;6.794;2024-02-26T04:21:30;62.77;54.62;77.14;;
47109;Laerm;32856;51.422;6.794;2024-02-26T04:23:58;57.00;54.05;59.97;;
47109;Laerm;32856;51.422;6.794;2024-02-26T04:26:27;62.59;53.77;77.24;;
47109;Laerm;32856;51.422;6.794;2024-02-26T04:28:55;65.00;53.76;79.42;;
47109;Laerm;32856;51.422;6.794;2024-02-26T04:31:22;61.91;53.92;77.42;;
47109;Laerm;32856;51.422;6.794;2024-02-26T04:33:49;64.81;54.84;78.62;;
47109;Laerm;32856;51.422;6.794;2024-02-26T04:36:17;62.87;55.32;78.78;;
47109;Laerm;32856;51.422;6.794;2024-02-26T04:38:45;66.34;54.97;78.68;;
47109;Laerm;32856;51.422;6.794;2024-02-26T04:41:13;60.25;53.98;76.84;;
47109;Laerm;32856;51.422;6.794;2024-02-26T04:43:40;66.18;54.36;82.02;;
47109;Laerm;32856;51.422;6.794;2024-02-26T04:46:08;66.84;54.59;80.17;;
47109;Laerm;32856;51.422;6.794;2024-02-26T04:48:36;69.06;56.26;79.17;;
47109;Laerm;32856;51.422;6.794;2024-02-26T04:51:04;63.17;55.56;79.70;;
47109;Laerm;32856;51.422;6.794;2024-02-26T04:53:32;65.24;55.67;77.69;;
47109;Laerm;32856;51.422;6.794;2024-02-26T04:56:00;63.39;55.91;75.60;;
47109;Laerm;32856;51.422;6.794;2024-02-26T04:58:28;64.41;55.35;78.01;;
47109;Laerm;32856;51.422;6.794;2024-02-26T05:00:55;66.78;55.50;79.05;;
47109;Laerm;32856;51.422;6.794;2024-02-26T05:03:23;64.89;55.21;77.86;;
47109;Laerm;32856;51.422;6.794;2024-02-26T05:05:51;66.29;55.00;81.66;;
47109;Laerm;32856;51.422;6.794;2024-02-26T05:08:18;66.48;55.16;79.74;;
47109;Laerm;32856;51.422;6.794;2024-02-26T05:10:45;64.28;54.33;78.10;;
47109;Laerm;32856;51.422;6.794;2024-02-26T05:13:14;67.08;55.67;80.33;;
47109;Laerm;32856;51.422;6.794;2024-02-26T05:15:44;62.49;54.94;75.93;;
47109;Laerm;32856;51.422;6.794;2024-02-26T05:18:15;67.94;55.67;83.55;;
47109;Laerm;32856;51.422;6.794;2024-02-26T05:20:43;66.27;55.77;79.68;;
47109;Laerm;32856;51.422;6.794;2024-02-26T05:23:10;65.97;55.62;79.50;;
47109;Laerm;32856;51.422;6.794;2024-02-26T05:25:38;68.35;55.20;80.38;;
47109;Laerm;32856;51.422;6.794;2024-02-26T05:28:05;64.91;55.63;80.06;;
47109;Laerm;32856;51.422;6.794;2024-02-26T05:30:34;65.22;54.76;79.44;;
47109;Laerm;32856;51.422;6.794;2024-02-26T05:33:02;69.54;56.45;81.17;;
47109;Laerm;32856;51.422;6.794;2024-02-26T05:35:29;64.18;56.24;76.33;;
47109;Laerm;32856;51.422;6.794;2024-02-26T05:37:56;64.98;54.36;78.17;;
47109;Laerm;32856;51.422;6.794;2024-02-26T05:40:24;70.19;55.68;80.59;;
47109;Laerm;32856;51.422;6.794;2024-02-26T05:42:51;68.59;55.31;81.21;;
47109;Laerm;32856;51.422;6.794;2024-02-26T05:45:18;67.24;54.99;84.17;;
47109;Laerm;32856;51.422;6.794;2024-02-26T05:47:47;68.18;55.52;85.07;;
47109;Laerm;32856;51.422;6.794;2024-02-26T05:50:16;68.60;56.40;78.50;;
47109;Laerm;32856;51.422;6.794;2024-02-26T05:52:43;67.18;54.74;77.96;;
47109;Laerm;32856;51.422;6.794;2024-02-26T05:55:10;68.55;56.47;81.29;;
47109;Laerm;32856;51.422;6.794;2024-02-26T05:57:39;67.98;55.69;80.98;;
47109;Laerm;32856;51.422;6.794;2024-02-26T06:00:06;67.89;56.50;80.32;;
47109;Laerm;32856;51.422;6.794;2024-02-26T06:02:35;68.48;56.57;82.34;;
47109;Laerm;32856;51.422;6.794;2024-02-26T06:05:04;69.89;56.33;87.55;;
47109;Laerm;32856;51.422;6.794;2024-02-26T06:07:33;68.74;56.32;78.73;;
47109;Laerm;32856;51.422;6.794;2024-02-26T06:10:00;70.70;57.31;82.18;;
47109;Laerm;32856;51.422;6.794;2024-02-26T06:12:29;67.34;55.94;80.45;;
47109;Laerm;32856;51.422;6.794;2024-02-26T06:14:57;68.53;56.26;80.81;;
47109;Laerm;32856;51.422;6.794;2024-02-26T06:17:27;67.29;54.97;77.62;;
47109;Laerm;32856;51.422;6.794;2024-02-26T06:19:55;68.88;56.18;82.85;;
47109;Laerm;32856;51.422;6.794;2024-02-26T06:22:23;66.69;54.09;77.99;;
47109;Laerm;32856;51.422;6.794;2024-02-26T06:24:51;70.21;56.21;80.48;;
47109;Laerm;32856;51.422;6.794;2024-02-26T06:27:18;69.01;55.96;79.16;;
47109;Laerm;32856;51.422;6.794;2024-02-26T06:29:48;67.30;56.25;81.41;;
47109;Laerm;32856;51.422;6.794;2024-02-26T06:32:15;69.20;56.26;76.40;;
47109;Laerm;32856;51.422;6.794;2024-02-26T06:34:43;67.77;56.20;79.72;;
47109;Laerm;32856;51.422;6.794;2024-02-26T06:37:10;69.46;56.26;79.40;;
47109;Laerm;32856;51.422;6.794;2024-02-26T06:39:39;69.73;56.60;81.41;;
47109;Laerm;32856;51.422;6.794;2024-02-26T06:42:07;68.90;55.58;80.80;;
47109;Laerm;32856;51.422;6.794;2024-02-26T06:44:34;71.28;57.00;86.78;;
47109;Laerm;32856;51.422;6.794;2024-02-26T06:47:01;69.43;56.01;80.76;;
47109;Laerm;32856;51.422;6.794;2024-02-26T06:49:30;68.93;55.93;81.60;;
47109;Laerm;32856;51.422;6.794;2024-02-26T06:51:57;69.89;55.80;79.36;;
47109;Laerm;32856;51.422;6.794;2024-02-26T06:54:24;67.01;56.61;77.90;;
47109;Laerm;32856;51.422;6.794;2024-02-26T06:56:53;72.23;57.15;86.19;;
47109;Laerm;32856;51.422;6.794;2024-02-26T06:59:20;69.03;55.60;79.29;;
47109;Laerm;32856;51.422;6.794;2024-02-26T07:01:50;68.74;55.55;79.25;;
47109;Laerm;32856;51.422;6.794;2024-02-26T07:04:17;68.76;56.29;79.34;;
47109;Laerm;32856;51.422;6.794;2024-02-26T07:06:44;69.53;55.13;80.09;;
47109;Laerm;32856;51.422;6.794;2024-02-26T07:09:12;69.56;54.75;84.89;;
47109;Laerm;32856;51.422;6.794;2024-02-26T07:11:40;70.32;54.21;81.98;;
47109;Laerm;32856;51.422;6.794;2024-02-26T07:14:09;69.35;57.39;80.34;;
47109;Laerm;32856;51.422;6.794;2024-02-26T07:16:37;70.28;56.96;83.31;;
47109;Laerm;32856;51.422;6.794;2024-02-26T07:19:04;68.43;55.85;79.80;;
47109;Laerm;32856;51.422;6.794;2024-02-26T07:21:31;71.67;55.72;88.02;;
47109;Laerm;32856;51.422;6.794;2024-02-26T07:23:59;71.44;56.18;86.17;;
47109;Laerm;32856;51.422;6.794;2024-02-26T07:26:27;68.93;55.49;79.15;;
47109;Laerm;32856;51.422;6.794;2024-02-26T07:28:56;71.72;55.58;85.15;;
47109;Laerm;32856;51.422;6.794;2024-02-26T07:31:25;71.03;56.55;82.75;;
47109;Laerm;32856;51.422;6.794;2024-02-26T07:33:53;69.04;55.42;77.91;;
47109;Laerm;32856;51.422;6.794;2024-02-26T07:36:20;71.16;55.69;87.61;;
47109;Laerm;32856;51.422;6.794;2024-02-26T07:38:48;70.66;54.65;83.51;;
47109;Laerm;32856;51.422;6.794;2024-02-26T07:41:15;69.87;57.78;80.21;;
47109;Laerm;32856;51.422;6.794;2024-02-26T07:43:43;70.85;57.04;81.88;;
47109;Laerm;32856;51.422;6.794;2024-02-26T07:46:11;68.62;56.05;79.23;;
47109;Laerm;32856;51.422;6.794;2024-02-26T07:48:39;66.45;55.44;78.52;;
47109;Laerm;32856;51.422;6.794;2024-02-26T07:51:08;70.23;56.84;81.06;;
47109;Laerm;32856;51.422;6.794;2024-02-26T07:53:35;70.46;57.79;82.19;;
47109;Laerm;32856;51.422;6.794;2024-02-26T07:56:03;70.59;56.03;85.11;;
47109;Laerm;32856;51.422;6.794;2024-02-26T07:58:31;70.73;56.69;83.96;;
47109;Laerm;32856;51.422;6.794;2024-02-26T08:00:59;68.65;54.86;79.17;;
47109;Laerm;32856;51.422;6.794;2024-02-26T08:03:26;70.06;55.95;82.69;;
47109;Laerm;32856;51.422;6.794;2024-02-26T08:05:55;68.37;55.59;80.55;;
47109;Laerm;32856;51.422;6.794;2024-02-26T08:08:22;65.59;55.32;78.77;;
47109;Laerm;32856;51.422;6.794;2024-02-26T08:10:50;71.86;58.32;82.61;;
47109;Laerm;32856;51.422;6.794;2024-02-26T08:13:17;68.10;55.92;82.35;;
47109;Laerm;32856;51.422;6.794;2024-02-26T08:15:45;69.10;54.50;83.18;;
47109;Laerm;32856;51.422;6.794;2024-02-26T08:18:12;67.52;55.91;79.48;;
47109;Laerm;32856;51.422;6.794;2024-02-26T08:20:41;73.02;57.04;86.66;;
47109;Laerm;32856;51.422;6.794;2024-02-26T08:23:10;68.55;55.73;80.66;;
47109;Laerm;32856;51.422;6.794;2024-02-26T08:25:37;69.23;57.93;83.73;;
47109;Laerm;32856;51.422;6.794;2024-02-26T08:28:05;69.06;56.87;80.29;;
47109;Laerm;32856;51.422;6.794;2024-02-26T08:30:32;69.54;56.80;82.77;;
47109;Laerm;32856;51.422;6.794;2024-02-26T08:33:00;83.11;54.64;103.62;;
47109;Laerm;32856;51.422;6.794;2024-02-26T08:35:28;69.42;55.23;81.17;;
47109;Laerm;32856;51.422;6.794;2024-02-26T08:37:55;68.09;55.14;83.23;;
47109;Laerm;32856;51.422;6.794;2024-02-26T08:40:24;68.84;56.25;80.41;;
47109;Laerm;32856;51.422;6.794;2024-02-26T08:42:51;71.67;55.86;86.17;;
47109;Laerm;32856;51.422;6.794;2024-02-26T08:45:18;68.41;56.14;79.07;;
47109;Laerm;32856;51.422;6.794;2024-02-26T08:47:46;69.57;56.52;84.66;;
47109;Laerm;32856;51.422;6.794;2024-02-26T08:50:13;67.85;57.79;79.79;;
47109;Laerm;32856;51.422;6.794;2024-02-26T08:52:41;67.95;54.66;81.73;;
47109;Laerm;32856;51.422;6.794;2024-02-26T08:55:08;69.35;55.32;80.91;;
47109;Laerm;32856;51.422;6.794;2024-02-26T08:57:37;69.71;54.27;88.64;;
47109;Laerm;32856;51.422;6.794;2024-02-26T09:00:05;67.28;55.96;78.51;;
47109;Laerm;32856;51.422;6.794;2024-02-26T09:02:33;69.26;55.35;82.67;;
47109;Laerm;32856;51.422;6.794;2024-02-26T09:05:00;71.36;55.01;87.08;;
47109;Laerm;32856;51.422;6.794;2024-02-26T09:07:27;67.55;55.35;81.42;;
47109;Laerm;32856;51.422;6.794;2024-02-26T09:09:55;68.82;55.18;82.52;;
47109;Laerm;32856;51.422;6.794;2024-02-26T09:12:22;68.89;55.25;86.41;;
47109;Laerm;32856;51.422;6.794;2024-02-26T09:14:51;69.49;55.50;84.06;;
47109;Laerm;32856;51.422;6.794;2024-02-26T09:17:18;65.54;54.65;78.99;;
47109;Laerm;32856;51.422;6.794;2024-02-26T09:19:46;69.70;54.42;83.31;;
47109;Laerm;32856;51.422;6.794;2024-02-26T09:22:13;66.98;55.22;82.44;;
47109;Laerm;32856;51.422;6.794;2024-02-26T09:24:43;69.84;55.30;82.10;;
47109;Laerm;32856;51.422;6.794;2024-02-26T09:27:11;67.49;54.68;85.12;;
47109;Laerm;32856;51.422;6.794;2024-02-26T09:29:38;67.10;56.28;77.18;;
47109;Laerm;32856;51.422;6.794;2024-02-26T09:32:08;66.58;56.05;77.80;;
47109;Laerm;32856;51.422;6.794;2024-02-26T09:34:35;67.62;56.52;78.69;;
47109;Laerm;32856;51.422;6.794;2024-02-26T09:37:03;68.04;55.91;74.95;;
47109;Laerm;32856;51.422;6.794;2024-02-26T09:39:37;67.89;54.39;81.11;;
47109;Laerm;32856;51.422;6.794;2024-02-26T09:42:04;70.91;55.03;83.91;;
47109;Laerm;32856;51.422;6.794;2024-02-26T09:44:33;68.76;55.23;79.28;;
47109;Laerm;32856;51.422;6.794;2024-02-26T09:47:04;70.18;54.85;82.18;;
47109;Laerm;32856;51.422;6.794;2024-02-26T09:49:33;67.62;55.29;79.35;;
47109;Laerm;32856;51.422;6.794;2024-02-26T09:52:02;71.15;56.01;81.97;;
47109;Laerm;32856;51.422;6.794;2024-02-26T09:54:30;68.94;56.02;80.47;;
47109;Laerm;32856;51.422;6.794;2024-02-26T09:56:59;69.79;54.80;81.94;;
47109;Laerm;32856;51.422;6.794;2024-02-26T09:59:28;67.61;54.91;81.28;;
47109;Laerm;32856;51.422;6.794;2024-02-26T10:01:56;66.21;55.53;79.33;;
47109;Laerm;32856;51.422;6.794;2024-02-26T10:04:25;68.40;53.67;79.40;;
47109;Laerm;32856;51.422;6.794;2024-02-26T10:06:54;69.50;55.18;80.45;;
47109;Laerm;32856;51.422;6.794;2024-02-26T10:09:22;72.31;55.47;85.82;;
47109;Laerm;32856;51.422;6.794;2024-02-26T10:11:50;69.28;55.19;81.40;;
47109;Laerm;32856;51.422;6.794;2024-02-26T10:14:18;66.86;54.81;77.79;;
47109;Laerm;32856;51.422;6.794;2024-02-26T10:16:45;71.42;54.56;84.99;;
47109;Laerm;32856;51.422;6.794;2024-02-26T10:19:19;66.87;54.33;80.29;;
47109;Laerm;32856;51.422;6.794;2024-02-26T10:21:52;67.18;55.02;79.28;;
47109;Laerm;32856;51.422;6.794;2024-02-26T10:24:22;69.86;54.18;82.33;;
47109;Laerm;32856;51.422;6.794;2024-02-26T10:26:49;68.78;56.19;79.96;;
47109;Laerm;32856;51.422;6.794;2024-02-26T10:29:17;69.82;55.73;80.07;;
47109;Laerm;32856;51.422;6.794;2024-02-26T10:31:45;69.43;56.02;80.04;;
47109;Laerm;32856;51.422;6.794;2024-02-26T10:34:12;67.17;55.59;79.22;;
47109;Laerm;32856;51.422;6.794;2024-02-26T10:36:40;71.28;57.00;88.09;;
47109;Laerm;32856;51.422;6.794;2024-02-26T10:39:13;70.89;56.22;83.55;;
47109;Laerm;32856;51.422;6.794;2024-02-26T10:41:43;70.46;56.09;83.81;;
47109;Laerm;32856;51.422;6.794;2024-02-26T10:44:11;69.59;56.93;80.31;;
47109;Laerm;32856;51.422;6.794;2024-02-26T10:46:43;66.90;55.12;78.91;;
47109;Laerm;32856;51.422;6.794;2024-02-26T10:49:13;69.89;55.08;78.89;;
47109;Laerm;32856;51.422;6.794;2024-02-26T10:51:42;68.79;55.15;80.06;;
47109;Laerm;32856;51.422;6.794;2024-02-26T10:54:11;69.50;53.09;84.59;;
47109;Laerm;32856;51.422;6.794;2024-02-26T10:56:39;67.56;53.62;82.77;;
47109;Laerm;32856;51.422;6.794;2024-02-26T10:59:11;70.05;53.76;85.86;;
47109;Laerm;32856;51.422;6.794;2024-02-26T11:01:38;66.62;54.03;80.07;;
47109;Laerm;32856;51.422;6.794;2024-02-26T11:04:07;68.45;54.99;78.98;;
47109;Laerm;32856;51.422;6.794;2024-02-26T11:06:36;66.75;55.63;78.81;;
47109;Laerm;32856;51.422;6.794;2024-02-26T11:09:04;71.67;54.46;84.96;;
47109;Laerm;32856;51.422;6.794;2024-02-26T11:11:32;68.61;55.65;79.45;;
47109;Laerm;32856;51.422;6.794;2024-02-26T11:14:00;70.10;55.81;81.39;;
47109;Laerm;32856;51.422;6.794;2024-02-26T11:16:29;69.32;53.56;82.77;;
47109;Laerm;32856;51.422;6.794;2024-02-26T11:18:57;69.58;53.61;80.52;;
47109;Laerm;32856;51.422;6.794;2024-02-26T11:21:24;69.94;53.81;81.06;;
47109;Laerm;32856;51.422;6.794;2024-02-26T11:24:05;67.79;53.95;85.45;;
47109;Laerm;32856;51.422;6.794;2024-02-26T11:26:33;70.17;54.44;80.66;;
47109;Laerm;32856;51.422;6.794;2024-02-26T11:29:01;69.72;53.62;81.13;;
47109;Laerm;32856;51.422;6.794;2024-02-26T11:31:31;68.86;53.85;81.58;;
47109;Laerm;32856;51.422;6.794;2024-02-26T11:34:02;67.70;52.97;80.77;;
47109;Laerm;32856;51.422;6.794;2024-02-26T11:36:30;68.71;53.75;81.42;;
47109;Laerm;32856;51.422;6.794;2024-02-26T11:38:57;68.58;54.25;80.44;;
47109;Laerm;32856;51.422;6.794;2024-02-26T11:41:25;67.83;53.76;80.45;;
47109;Laerm;32856;51.422;6.794;2024-02-26T11:43:53;66.04;53.66;77.93;;
47109;Laerm;32856;51.422;6.794;2024-02-26T11:46:27;69.79;54.41;84.30;;
47109;Laerm;32856;51.422;6.794;2024-02-26T11:48:57;69.58;53.67;83.19;;
47109;Laerm;32856;51.422;6.794;2024-02-26T11:51:26;70.31;53.96;86.86;;
47109;Laerm;32856;51.422;6.794;2024-02-26T11:53:54;70.85;54.57;82.35;;
47109;Laerm;32856;51.422;6.794;2024-02-26T11:56:23;70.08;53.50;81.09;;
47109;Laerm;32856;51.422;6.794;2024-02-26T11:58:57;70.23;54.69;80.73;;
47109;Laerm;32856;51.422;6.794;2024-02-26T12:01:43;68.77;55.04;78.84;;
47109;Laerm;32856;51.422;6.794;2024-02-26T12:04:13;66.50;53.23;78.48;;
47109;Laerm;32856;51.422;6.794;2024-02-26T12:06:42;68.63;53.34;80.80;;
47109;Laerm;32856;51.422;6.794;2024-02-26T12:09:09;71.93;54.77;84.75;;
47109;Laerm;32856;51.422;6.794;2024-02-26T12:11:37;69.67;52.51;80.96;;
47109;Laerm;32856;51.422;6.794;2024-02-26T12:14:05;66.29;53.70;78.04;;
47109;Laerm;32856;51.422;6.794;2024-02-26T12:16:35;68.90;52.84;81.43;;
47109;Laerm;32856;51.422;6.794;2024-02-26T12:19:03;68.14;54.42;82.03;;
47109;Laerm;32856;51.422;6.794;2024-02-26T12:21:32;69.51;53.23;80.81;;
47109;Laerm;32856;51.422;6.794;2024-02-26T12:24:07;68.15;55.14;79.18;;
47109;Laerm;32856;51.422;6.794;2024-02-26T12:26:37;68.45;54.56;79.19;;
47109;Laerm;32856;51.422;6.794;2024-02-26T12:29:04;68.59;55.59;79.49;;
47109;Laerm;32856;51.422;6.794;2024-02-26T12:31:32;65.18;54.86;77.01;;
47109;Laerm;32856;51.422;6.794;2024-02-26T12:33:59;66.86;53.71;79.52;;
47109;Laerm;32856;51.422;6.794;2024-02-26T12:36:27;67.84;54.04;80.08;;
47109;Laerm;32856;51.422;6.794;2024-02-26T12:38:56;68.25;56.35;80.21;;
47109;Laerm;32856;51.422;6.794;2024-02-26T12:41:23;66.89;54.34;76.51;;
47109;Laerm;32856;51.422;6.794;2024-02-26T12:43:51;68.85;56.22;78.47;;
47109;Laerm;32856;51.422;6.794;2024-02-26T12:46:20;67.61;54.48;76.83;;
47109;Laerm;32856;51.422;6.794;2024-02-26T12:48:47;65.99;52.80;76.98;;
47109;Laerm;32856;51.422;6.794;2024-02-26T12:51:15;69.77;54.44;82.12;;
47109;Laerm;32856;51.422;6.794;2024-02-26T12:53:43;67.79;55.10;79.88;;
47109;Laerm;32856;51.422;6.794;2024-02-26T12:56:12;67.30;52.34;79.13;;
47109;Laerm;32856;51.422;6.794;2024-02-26T12:58:40;65.91;53.81;82.43;;
47109;Laerm;32856;51.422;6.794;2024-02-26T13:01:07;69.91;55.44;78.69;;
47109;Laerm;32856;51.422;6.794;2024-02-26T13:03:40;68.37;54.78;78.25;;
47109;Laerm;32856;51.422;6.794;2024-02-26T13:06:08;65.26;53.17;77.07;;
47109;Laerm;32856;51.422;6.794;2024-02-26T13:08:36;69.70;53.57;83.53;;
47109;Laerm;32856;51.422;6.794;2024-02-26T13:11:04;67.28;52.46;76.26;;
47109;Laerm;32856;51.422;6.794;2024-02-26T13:13:33;70.06;54.98;82.30;;
47109;Laerm;32856;51.422;6.794;2024-02-26T13:16:04;69.27;55.29;86.63;;
47109;Laerm;32856;51.422;6.794;2024-02-26T13:18:32;68.13;54.76;78.97;;
47109;Laerm;32856;51.422;6.794;2024-02-26T13:21:09;73.56;55.79;90.98;;
47109;Laerm;32856;51.422;6.794;2024-02-26T13:23:37;68.80;56.06;79.26;;
47109;Laerm;32856;51.422;6.794;2024-02-26T13:26:04;66.95;53.98;76.53;;
47109;Laerm;32856;51.422;6.794;2024-02-26T13:28:33;66.48;52.95;77.12;;
47109;Laerm;32856;51.422;6.794;2024-02-26T13:31:01;67.60;55.36;78.41;;
47109;Laerm;32856;51.422;6.794;2024-02-26T13:33:30;67.52;55.54;78.69;;
47109;Laerm;32856;51.422;6.794;2024-02-26T13:35:58;69.45;54.55;83.77;;
47109;Laerm;32856;51.422;6.794;2024-02-26T13:38:27;68.04;53.23;82.87;;
47109;Laerm;32856;51.422;6.794;2024-02-26T13:40:54;66.60;54.41;78.35;;
47109;Laerm;32856;51.422;6.794;2024-02-26T13:43:22;69.87;54.97;81.38;;
47109;Laerm;32856;51.422;6.794;2024-02-26T13:45:50;67.02;53.52;77.68;;
47109;Laerm;32856;51.422;6.794;2024-02-26T13:48:18;69.96;55.36;83.74;;